Аэропорт: Иркутск. Иркутск

ICAO: UIII

METAR:
2019-07-23 18:30:00
UIII 231830Z 11001MPS 1400 0900NW R12/1800N BCFG SCT050CB 18/18 Q1005 R12/290150 NOSIG RMK QFE711/0949
METAR:
2019-07-23 16:19:00
TAF AMD UIII 231619Z 2316/2415 VRB01MPS 0300 FG VV001 TEMPO 2316/2403 2000 -SHRA BR BKN005CB BECMG 2403/2404 9999 NSW SCT015CB